Time;durP1;ratioP1;P1;durP2;ratioP2;P2;SDS_P1;SDS_P2;PMS_P1;PMS_P2;Temp;Humidity;BMP_temperature;BMP_pressure;BME280_temperature;BME280_humidity;BME280_pressure;Samples;Min_cycle;Max_cycle;Signal;HPM_P1;HPM_P2
2022/10/10 00:00:05;;;;;;;;;22.00;19.75;;;;;;;;5075929;27;45378;-79
2022/10/10 00:02:30;;;;;;;;;22.00;17.75;;;;;;;;5079414;27;48056;-79
2022/10/10 00:04:55;;;;;;;;;18.75;18.25;;;;;;;;5074552;27;45495;-79
2022/10/10 00:07:20;;;;;;;;;26.50;21.00;;;;;;;;5090871;27;45362;-79
2022/10/10 00:09:46;;;;;;;;;23.00;16.25;;;;;;;;5074981;27;45586;-79
2022/10/10 00:12:11;;;;;;;;;22.25;20.50;;;;;;;;5088894;27;46307;-79
2022/10/10 00:14:36;;;;;;;;;25.25;21.25;;;;;;;;5087884;27;45455;-79
2022/10/10 00:17:02;;;;;;;;;22.00;21.00;;;;;;;;5087523;27;45649;-79
2022/10/10 00:19:27;;;;;;;;;28.50;24.75;;;;;;;;5092505;27;45426;-79
2022/10/10 00:21:52;;;;;;;;;26.00;22.25;;;;;;;;5095732;27;45331;-79
2022/10/10 00:24:17;;;;;;;;;29.00;25.00;;;;;;;;5070902;27;45656;-79
2022/10/10 00:26:42;;;;;;;;;30.00;26.25;;;;;;;;5085446;27;45616;-79
2022/10/10 00:29:08;;;;;;;;;33.00;26.25;;;;;;;;5085945;27;45351;-79
2022/10/10 00:31:33;;;;;;;;;26.25;22.50;;;;;;;;5098180;27;45931;-79
2022/10/10 00:33:58;;;;;;;;;22.50;22.50;;;;;;;;5086026;27;45365;-79
2022/10/10 00:36:23;;;;;;;;;28.75;24.00;;;;;;;;5081546;27;45401;-79
2022/10/10 00:38:49;;;;;;;;;24.00;22.00;;;;;;;;5089614;27;45202;-79
2022/10/10 00:41:14;;;;;;;;;25.75;24.25;;;;;;;;5092992;27;46069;-79
2022/10/10 00:43:39;;;;;;;;;25.50;23.50;;;;;;;;5091187;27;45362;-79
2022/10/10 00:46:04;;;;;;;;;31.75;25.25;;;;;;;;5080202;27;45248;-79
2022/10/10 00:48:41;;;;;;;;;31.25;25.75;;;;;;;;5080503;27;45398;-79
2022/10/10 00:51:08;;;;;;;;;30.75;29.00;;;;;;;;5091152;27;46192;-79
2022/10/10 00:53:54;;;;;;;;;25.75;23.75;;;;;;;;5080018;27;45443;-79
2022/10/10 00:56:22;;;;;;;;;24.50;24.00;;;;;;;;5091087;27;45374;-79
2022/10/10 00:58:49;;;;;;;;;27.50;25.00;;;;;;;;5067462;27;45461;-78
2022/10/10 01:01:14;;;;;;;;;31.75;26.00;;;;;;;;5097270;27;46261;-79
2022/10/10 01:03:39;;;;;;;;;23.50;20.00;;;;;;;;5086573;27;45256;-79
2022/10/10 01:06:05;;;;;;;;;34.25;29.50;;;;;;;;5080393;27;45228;-79
2022/10/10 01:08:30;;;;;;;;;35.50;32.50;;;;;;;;5086736;27;45303;-79
2022/10/10 01:11:08;;;;;;;;;31.75;29.75;;;;;;;;5080383;27;46080;-78
2022/10/10 01:13:39;;;;;;;;;31.50;28.75;;;;;;;;5078638;27;45279;-79
2022/10/10 01:16:18;;;;;;;;;26.00;23.50;;;;;;;;5080250;27;45434;-79
2022/10/10 01:18:49;;;;;;;;;29.25;27.00;;;;;;;;5068806;27;45352;-79
2022/10/10 01:21:19;;;;;;;;;29.50;28.50;;;;;;;;5083499;27;45253;-79
2022/10/10 01:23:50;;;;;;;;;33.50;28.75;;;;;;;;5091680;27;45545;-79
2022/10/10 01:26:29;;;;;;;;;31.25;27.75;;;;;;;;5086806;27;45205;-78
2022/10/10 01:28:54;;;;;;;;;33.75;30.50;;;;;;;;5086615;27;45511;-79
2022/10/10 01:31:21;;;;;;;;;33.00;30.00;;;;;;;;5095046;27;45924;-79
2022/10/10 01:34:05;;;;;;;;;38.50;32.50;;;;;;;;5086314;27;45470;-79
2022/10/10 01:36:30;;;;;;;;;32.75;30.50;;;;;;;;5090629;27;45533;-79
2022/10/10 01:39:18;;;;;;;;;35.50;30.25;;;;;;;;5083064;27;45445;-77
2022/10/10 01:41:55;;;;;;;;;23.00;23.00;;;;;;;;5081345;27;46360;-79
2022/10/10 01:44:20;;;;;;;;;34.25;29.00;;;;;;;;5084405;27;45278;-79
2022/10/10 01:46:45;;;;;;;;;33.25;27.25;;;;;;;;5080277;27;45169;-80
2022/10/10 01:49:10;;;;;;;;;25.00;25.00;;;;;;;;5084068;27;45406;-79
2022/10/10 01:51:38;;;;;;;;;27.75;25.25;;;;;;;;5088266;27;46542;-79
2022/10/10 01:54:09;;;;;;;;;32.50;27.25;;;;;;;;5087363;27;45388;-79
2022/10/10 01:56:45;;;;;;;;;28.25;26.75;;;;;;;;5094983;27;45438;-79
2022/10/10 01:59:10;;;;;;;;;28.50;24.50;;;;;;;;5081975;27;46341;-79
2022/10/10 02:01:38;;;;;;;;;30.75;25.25;;;;;;;;5083240;27;45502;-79
2022/10/10 02:04:17;;;;;;;;;27.75;23.25;;;;;;;;5078193;27;45500;-78
2022/10/10 02:06:52;;;;;;;;;29.25;25.25;;;;;;;;5094708;27;45304;-79
2022/10/10 02:09:25;;;;;;;;;26.50;25.00;;;;;;;;5086382;27;45453;-79
2022/10/10 02:11:51;;;;;;;;;26.25;25.50;;;;;;;;5079966;27;45530;-79
2022/10/10 02:14:19;;;;;;;;;25.75;22.00;;;;;;;;5082847;27;45261;-79
2022/10/10 02:16:45;;;;;;;;;26.50;23.00;;;;;;;;5075925;27;45256;-79
2022/10/10 02:19:14;;;;;;;;;27.00;24.50;;;;;;;;5083628;27;45489;-79
2022/10/10 02:21:40;;;;;;;;;20.75;20.75;;;;;;;;5079355;27;45381;-79
2022/10/10 02:24:06;;;;;;;;;29.50;23.50;;;;;;;;5078835;27;46173;-79
2022/10/10 02:26:32;;;;;;;;;25.75;23.50;;;;;;;;5093305;27;45450;-80
2022/10/10 02:28:57;;;;;;;;;24.50;21.50;;;;;;;;5080279;27;47120;-80
2022/10/10 02:31:32;;;;;;;;;24.75;22.25;;;;;;;;5098251;27;45154;-80
2022/10/10 02:34:04;;;;;;;;;24.00;21.25;;;;;;;;5084564;27;45335;-80
2022/10/10 02:36:30;;;;;;;;;23.25;22.00;;;;;;;;5081135;27;45429;-79
2022/10/10 02:38:57;;;;;;;;;25.00;21.75;;;;;;;;5083604;27;45503;-80
2022/10/10 02:41:22;;;;;;;;;24.25;23.50;;;;;;;;5078992;27;46451;-79
2022/10/10 02:43:49;;;;;;;;;20.75;19.75;;;;;;;;5090231;27;45396;-80
2022/10/10 02:46:16;;;;;;;;;24.00;23.75;;;;;;;;5072155;27;45241;-79
2022/10/10 02:48:42;;;;;;;;;24.75;23.00;;;;;;;;5095031;27;45396;-79
2022/10/10 02:51:08;;;;;;;;;21.75;19.25;;;;;;;;5085765;27;45445;-80
2022/10/10 02:53:35;;;;;;;;;21.75;21.75;;;;;;;;5092078;27;45663;-80
2022/10/10 02:56:01;;;;;;;;;20.50;19.75;;;;;;;;5080906;27;45313;-80
2022/10/10 02:58:26;;;;;;;;;24.25;23.00;;;;;;;;5076408;27;45351;-80
2022/10/10 03:00:51;;;;;;;;;21.75;20.25;;;;;;;;5068294;27;46796;-80
2022/10/10 03:03:16;;;;;;;;;26.25;21.75;;;;;;;;5087874;27;45304;-81
2022/10/10 03:05:41;;;;;;;;;24.00;21.25;;;;;;;;5091442;27;45276;-80
2022/10/10 03:08:07;;;;;;;;;20.50;17.50;;;;;;;;5085485;27;45512;-79
2022/10/10 03:10:32;;;;;;;;;21.25;20.25;;;;;;;;5086292;27;47429;-80
2022/10/10 03:12:57;;;;;;;;;21.50;18.50;;;;;;;;5090878;27;45342;-80
2022/10/10 03:15:22;;;;;;;;;24.00;19.75;;;;;;;;5081871;27;45315;-80
2022/10/10 03:17:47;;;;;;;;;20.75;18.75;;;;;;;;5080908;27;45552;-80
2022/10/10 03:20:13;;;;;;;;;18.25;18.25;;;;;;;;5076629;27;47981;-80
2022/10/10 03:22:38;;;;;;;;;20.25;18.00;;;;;;;;5089047;27;45445;-79
2022/10/10 03:25:03;;;;;;;;;21.25;18.75;;;;;;;;5082186;27;45332;-79
2022/10/10 03:27:29;;;;;;;;;24.00;22.50;;;;;;;;5081306;27;45268;-79
2022/10/10 03:29:54;;;;;;;;;28.00;21.75;;;;;;;;5079451;27;45325;-79
2022/10/10 03:32:19;;;;;;;;;18.50;17.75;;;;;;;;5079062;27;45265;-81
2022/10/10 03:34:44;;;;;;;;;24.50;20.75;;;;;;;;5083659;27;45220;-79
2022/10/10 03:37:09;;;;;;;;;9.25;6.00;;;;;;;;5081632;27;45391;-79
2022/10/10 03:39:35;;;;;;;;;23.50;20.25;;;;;;;;5071012;27;47701;-80
2022/10/10 03:42:00;;;;;;;;;20.50;19.25;;;;;;;;5082124;27;45469;-80
2022/10/10 03:44:25;;;;;;;;;23.75;20.00;;;;;;;;5077637;27;45391;-80
2022/10/10 03:46:50;;;;;;;;;24.25;19.75;;;;;;;;5082124;27;45226;-80
2022/10/10 03:49:16;;;;;;;;;19.50;16.00;;;;;;;;5086606;27;46230;-80
2022/10/10 03:51:41;;;;;;;;;19.50;18.25;;;;;;;;5084419;27;45510;-79
2022/10/10 03:54:06;;;;;;;;;21.75;18.75;;;;;;;;5068318;27;45469;-78
2022/10/10 03:56:31;;;;;;;;;18.00;18.00;;;;;;;;5087268;27;45309;-78
2022/10/10 03:58:59;;;;;;;;;21.25;18.50;;;;;;;;5087012;27;45359;-78
2022/10/10 04:01:25;;;;;;;;;19.00;18.75;;;;;;;;5081443;27;45411;-79
2022/10/10 04:03:50;;;;;;;;;17.25;16.25;;;;;;;;5088415;27;45590;-78
2022/10/10 04:06:15;;;;;;;;;17.75;16.50;;;;;;;;5082568;27;45584;-78
2022/10/10 04:08:41;;;;;;;;;20.00;17.75;;;;;;;;5075738;27;48129;-79
2022/10/10 04:11:06;;;;;;;;;26.25;19.75;;;;;;;;5081108;27;45475;-79
2022/10/10 04:13:31;;;;;;;;;16.00;14.50;;;;;;;;5078193;27;45501;-78
2022/10/10 04:15:56;;;;;;;;;18.00;17.25;;;;;;;;5081015;27;45522;-78
2022/10/10 04:18:22;;;;;;;;;19.50;17.50;;;;;;;;5085485;27;45435;-78
2022/10/10 04:20:47;;;;;;;;;19.75;16.50;;;;;;;;5081890;27;45318;-79
2022/10/10 04:23:13;;;;;;;;;18.00;17.00;;;;;;;;5085671;27;45563;-79
2022/10/10 04:25:38;;;;;;;;;18.25;16.75;;;;;;;;5080972;27;45630;-78
2022/10/10 04:28:03;;;;;;;;;16.25;15.25;;;;;;;;5073039;27;47210;-79
2022/10/10 04:30:30;;;;;;;;;19.75;17.00;;;;;;;;5086094;27;45418;-79
2022/10/10 04:32:55;;;;;;;;;21.75;18.00;;;;;;;;5076423;27;45370;-79
2022/10/10 04:35:21;;;;;;;;;20.25;19.25;;;;;;;;5079405;27;46643;-78
2022/10/10 04:37:46;;;;;;;;;19.50;16.75;;;;;;;;5091087;27;45492;-79
2022/10/10 04:40:11;;;;;;;;;18.25;15.75;;;;;;;;5086317;27;45297;-79
2022/10/10 04:42:36;;;;;;;;;18.25;17.25;;;;;;;;5091012;27;45406;-79
2022/10/10 04:45:02;;;;;;;;;20.50;16.75;;;;;;;;5091083;27;45202;-78
2022/10/10 04:47:27;;;;;;;;;19.75;17.50;;;;;;;;5089986;27;46511;-78
2022/10/10 04:49:53;;;;;;;;;20.50;17.75;;;;;;;;5083433;27;45146;-79
2022/10/10 04:52:18;;;;;;;;;18.50;17.00;;;;;;;;5091451;27;45346;-79
2022/10/10 04:54:43;;;;;;;;;26.75;19.50;;;;;;;;5091106;27;45660;-79
2022/10/10 04:57:08;;;;;;;;;21.00;18.25;;;;;;;;5091900;27;45195;-79
2022/10/10 04:59:33;;;;;;;;;21.75;18.75;;;;;;;;5080434;27;45373;-80
2022/10/10 05:01:59;;;;;;;;;18.75;16.50;;;;;;;;5098644;27;45374;-78
2022/10/10 05:04:24;;;;;;;;;20.00;17.25;;;;;;;;5099136;27;45350;-78
2022/10/10 05:06:49;;;;;;;;;20.50;18.00;;;;;;;;5097985;27;45342;-80
2022/10/10 05:09:15;;;;;;;;;16.25;15.50;;;;;;;;5100767;27;45300;-79
2022/10/10 05:11:40;;;;;;;;;25.25;18.50;;;;;;;;5098171;27;45307;-81
2022/10/10 05:14:05;;;;;;;;;19.25;18.25;;;;;;;;5095549;27;45424;-79
2022/10/10 05:16:30;;;;;;;;;19.50;15.50;;;;;;;;5091221;27;45290;-79
2022/10/10 05:19:00;;;;;;;;;17.00;15.25;;;;;;;;5095274;27;45349;-78
2022/10/10 05:21:25;;;;;;;;;20.00;18.25;;;;;;;;5071287;27;45420;-78
2022/10/10 05:23:50;;;;;;;;;17.00;16.75;;;;;;;;5092334;27;45511;-79
2022/10/10 05:26:16;;;;;;;;;22.75;19.50;;;;;;;;5091121;27;46635;-78
2022/10/10 05:28:41;;;;;;;;;20.25;16.50;;;;;;;;5078085;27;45927;-79
2022/10/10 05:31:06;;;;;;;;;17.50;15.75;;;;;;;;5072459;27;45287;-79
2022/10/10 05:33:32;;;;;;;;;16.00;12.25;;;;;;;;5090167;27;45329;-79
2022/10/10 05:36:01;;;;;;;;;18.75;16.50;;;;;;;;5102278;27;45222;-79
2022/10/10 05:38:27;;;;;;;;;23.50;20.25;;;;;;;;5087362;27;45373;-81
2022/10/10 05:40:53;;;;;;;;;17.75;17.25;;;;;;;;5088997;27;45173;-79
2022/10/10 05:43:18;;;;;;;;;15.25;15.00;;;;;;;;5088558;27;45645;-81
2022/10/10 05:45:43;;;;;;;;;19.25;16.50;;;;;;;;5096469;27;45467;-78
2022/10/10 05:48:08;;;;;;;;;17.50;16.25;;;;;;;;5088566;27;45301;-78
2022/10/10 05:50:38;;;;;;;;;18.00;18.00;;;;;;;;5081123;27;45271;-78
2022/10/10 05:53:03;;;;;;;;;19.00;19.00;;;;;;;;5090079;27;45391;-78
2022/10/10 05:55:28;;;;;;;;;15.75;13.75;;;;;;;;5084429;27;46042;-78
2022/10/10 05:57:54;;;;;;;;;16.00;14.50;;;;;;;;5096195;27;45490;-78
2022/10/10 06:00:19;;;;;;;;;17.00;16.00;;;;;;;;5088870;27;45323;-81
2022/10/10 06:02:44;;;;;;;;;17.25;14.75;;;;;;;;5091491;27;45789;-78
2022/10/10 06:05:09;;;;;;;;;19.25;16.00;;;;;;;;5079288;27;45707;-81
2022/10/10 06:07:35;;;;;;;;;15.00;13.25;;;;;;;;5089514;27;45299;-79
2022/10/10 06:10:00;;;;;;;;;17.50;16.00;;;;;;;;5075385;27;45458;-78
2022/10/10 06:12:25;;;;;;;;;15.00;13.25;;;;;;;;5090955;27;45407;-79
2022/10/10 06:14:50;;;;;;;;;17.50;15.75;;;;;;;;5095511;27;45390;-79
2022/10/10 06:17:16;;;;;;;;;14.75;14.75;;;;;;;;5072909;28;45378;-79
2022/10/10 06:19:41;;;;;;;;;16.50;16.50;;;;;;;;5096771;27;45253;-79
2022/10/10 06:22:06;;;;;;;;;17.00;14.25;;;;;;;;5074896;28;46475;-78
2022/10/10 06:24:32;;;;;;;;;13.00;13.00;;;;;;;;5096978;27;46222;-78
2022/10/10 06:26:57;;;;;;;;;12.50;12.50;;;;;;;;5078151;27;45295;-79
2022/10/10 06:29:22;;;;;;;;;17.50;16.00;;;;;;;;5068000;27;45458;-79
2022/10/10 06:31:47;;;;;;;;;14.00;14.00;;;;;;;;5095293;27;45437;-78
2022/10/10 06:34:12;;;;;;;;;16.25;15.25;;;;;;;;5088232;27;46025;-79
2022/10/10 06:36:38;;;;;;;;;10.75;8.75;;;;;;;;5084874;27;45300;-79
2022/10/10 06:39:03;;;;;;;;;16.50;14.25;;;;;;;;5087168;27;45328;-79
2022/10/10 06:41:28;;;;;;;;;15.00;14.50;;;;;;;;5090260;27;45532;-79
2022/10/10 06:43:54;;;;;;;;;13.25;11.00;;;;;;;;5094596;27;47015;-80
2022/10/10 06:46:19;;;;;;;;;15.25;13.25;;;;;;;;5076425;27;45501;-79
2022/10/10 06:48:45;;;;;;;;;16.00;13.75;;;;;;;;5073275;27;45240;-78
2022/10/10 06:51:13;;;;;;;;;17.50;13.00;;;;;;;;5092459;27;45206;-78
2022/10/10 06:53:38;;;;;;;;;17.25;15.00;;;;;;;;5084045;27;45216;-79
2022/10/10 06:56:03;;;;;;;;;14.00;12.75;;;;;;;;5086065;27;45669;-78
2022/10/10 06:58:29;;;;;;;;;15.25;13.75;;;;;;;;5093698;27;45304;-78
2022/10/10 07:00:55;;;;;;;;;13.50;11.00;;;;;;;;5094962;27;45303;-78
2022/10/10 07:03:20;;;;;;;;;18.25;14.50;;;;;;;;5066847;28;46927;-78
2022/10/10 07:05:53;;;;;;;;;15.75;14.50;;;;;;;;5093273;27;45347;-77
2022/10/10 07:08:18;;;;;;;;;17.50;15.75;;;;;;;;5091314;27;45467;-76
2022/10/10 07:10:44;;;;;;;;;17.50;14.50;;;;;;;;5080114;27;45503;-77
2022/10/10 07:13:09;;;;;;;;;13.50;13.00;;;;;;;;5089745;27;45513;-79
2022/10/10 07:15:35;;;;;;;;;13.25;13.25;;;;;;;;5098038;27;45429;-77
2022/10/10 07:18:00;;;;;;;;;18.75;14.00;;;;;;;;5095404;27;45237;-76
2022/10/10 07:20:26;;;;;;;;;19.50;17.75;;;;;;;;5091002;27;45337;-76
2022/10/10 07:22:51;;;;;;;;;17.50;14.75;;;;;;;;5069255;27;47132;-76
2022/10/10 07:25:16;;;;;;;;;20.00;15.75;;;;;;;;5081518;27;45426;-75
2022/10/10 07:27:41;;;;;;;;;20.25;16.50;;;;;;;;5091992;27;45542;-75
2022/10/10 07:30:07;;;;;;;;;12.50;12.00;;;;;;;;5094846;27;45287;-75
2022/10/10 07:32:32;;;;;;;;;19.25;15.50;;;;;;;;5095966;27;45511;-75
2022/10/10 07:34:57;;;;;;;;;18.50;16.75;;;;;;;;5095885;27;45300;-78
2022/10/10 07:37:23;;;;;;;;;16.00;16.00;;;;;;;;5099749;27;45415;-78
2022/10/10 07:39:50;;;;;;;;;13.50;13.25;;;;;;;;5082359;27;45255;-75
2022/10/10 07:42:15;;;;;;;;;17.25;13.75;;;;;;;;5071895;27;47334;-75
2022/10/10 07:44:41;;;;;;;;;15.33;11.67;;;;;;;;5093985;27;45290;-75
2022/10/10 07:47:06;;;;;;;;;14.50;13.25;;;;;;;;5071840;27;45303;-75
2022/10/10 07:49:32;;;;;;;;;16.75;14.00;;;;;;;;5066752;27;45769;-78
2022/10/10 07:51:57;;;;;;;;;16.67;13.00;;;;;;;;5074520;27;46969;-78
2022/10/10 07:54:22;;;;;;;;;14.00;14.00;;;;;;;;5085071;27;45369;-81
2022/10/10 07:56:47;;;;;;;;;14.33;12.33;;;;;;;;5093102;27;45465;-79
2022/10/10 07:59:13;;;;;;;;;17.33;14.67;;;;;;;;5092861;27;45289;-77
2022/10/10 08:01:38;;;;;;;;;18.00;15.67;;;;;;;;5097594;27;46411;-78
2022/10/10 08:04:03;;;;;;;;;18.50;16.50;;;;;;;;5097336;27;45437;-78
2022/10/10 08:06:28;;;;;;;;;14.33;13.33;;;;;;;;5099900;27;45263;-80
2022/10/10 08:08:53;;;;;;;;;17.33;15.67;;;;;;;;5092110;27;45227;-80
2022/10/10 08:11:20;;;;;;;;;16.00;13.00;;;;;;;;5080449;27;46250;-78
2022/10/10 08:13:45;;;;;;;;;18.33;14.33;;;;;;;;5089478;27;45280;-78
2022/10/10 08:16:10;;;;;;;;;19.67;14.33;;;;;;;;5078429;27;45392;-80
2022/10/10 08:18:35;;;;;;;;;15.00;13.00;;;;;;;;5092770;27;45448;-80
2022/10/10 08:21:02;;;;;;;;;15.67;14.67;;;;;;;;5090523;27;45214;-78
2022/10/10 08:23:28;;;;;;;;;15.67;14.33;;;;;;;;5086968;27;45335;-76
2022/10/10 08:25:53;;;;;;;;;18.67;16.33;;;;;;;;5094539;27;45221;-81
2022/10/10 08:28:18;;;;;;;;;19.67;15.00;;;;;;;;5088208;27;45389;-80
2022/10/10 08:30:43;;;;;;;;;15.67;13.67;;;;;;;;5086170;27;45442;-80
2022/10/10 08:33:09;;;;;;;;;16.67;13.67;;;;;;;;5093180;27;45516;-79
2022/10/10 08:35:38;;;;;;;;;10.00;8.33;;;;;;;;5088516;27;45421;-78
2022/10/10 08:38:03;;;;;;;;;15.00;12.00;;;;;;;;5090463;27;45405;-79
2022/10/10 08:40:29;;;;;;;;;17.33;13.33;;;;;;;;5090129;27;46184;-82
2022/10/10 08:42:55;;;;;;;;;15.67;14.00;;;;;;;;5072562;27;45498;-81
2022/10/10 08:45:23;;;;;;;;;11.00;11.00;;;;;;;;5081354;27;45351;-81
2022/10/10 08:47:54;;;;;;;;;17.00;13.00;;;;;;;;5071172;27;46785;-81
2022/10/10 08:50:26;;;;;;;;;16.67;13.00;;;;;;;;5094667;27;46656;-81
2022/10/10 08:52:51;;;;;;;;;15.00;13.00;;;;;;;;5087504;27;45347;-81
2022/10/10 08:55:37;;;;;;;;;12.33;12.33;;;;;;;;5081431;27;45284;-80
2022/10/10 08:58:11;;;;;;;;;14.00;13.00;;;;;;;;5090157;27;45533;-82
2022/10/10 09:00:38;;;;;;;;;10.33;10.00;;;;;;;;5084878;27;46165;-81
2022/10/10 09:03:11;;;;;;;;;13.00;11.33;;;;;;;;5085408;27;45384;-81
2022/10/10 09:05:40;;;;;;;;;10.00;9.00;;;;;;;;5067028;27;45186;-82
2022/10/10 09:08:24;;;;;;;;;13.67;11.00;;;;;;;;5091409;27;45320;-81
2022/10/10 09:10:57;;;;;;;;;12.00;10.33;;;;;;;;5087961;27;46012;-81
2022/10/10 09:13:23;;;;;;;;;11.33;7.67;;;;;;;;5087911;27;45390;-81
2022/10/10 09:15:48;;;;;;;;;12.67;10.00;;;;;;;;5079944;27;45475;-80
2022/10/10 09:18:35;;;;;;;;;12.33;10.33;;;;;;;;5088741;27;45355;-83
2022/10/10 09:21:11;;;;;;;;;16.00;12.00;;;;;;;;5081150;27;45408;-83
2022/10/10 09:23:43;;;;;;;;;15.33;11.67;;;;;;;;5084025;27;45442;-80
2022/10/10 09:26:10;;;;;;;;;11.33;8.33;;;;;;;;5081448;27;45395;-82
2022/10/10 09:28:49;;;;;;;;;10.00;9.00;;;;;;;;5087188;27;45292;-80
2022/10/10 09:31:23;;;;;;;;;13.33;10.67;;;;;;;;5094878;27;46154;-80
2022/10/10 09:33:56;;;;;;;;;10.00;9.00;;;;;;;;5088754;27;45452;-81
2022/10/10 09:36:23;;;;;;;;;12.00;10.33;;;;;;;;5096305;27;45346;-82
2022/10/10 09:38:55;;;;;;;;;14.00;12.00;;;;;;;;5094060;27;45433;-79
2022/10/10 09:41:35;;;;;;;;;13.00;11.33;;;;;;;;5092599;27;46478;-78
2022/10/10 09:44:04;;;;;;;;;9.00;8.00;;;;;;;;5091598;27;45414;-81
2022/10/10 09:46:29;;;;;;;;;10.67;10.00;;;;;;;;5079976;27;45419;-81
2022/10/10 09:48:56;;;;;;;;;11.00;9.33;;;;;;;;5093899;27;45276;-77
2022/10/10 09:51:21;;;;;;;;;8.67;7.00;;;;;;;;5078405;27;46915;-79
2022/10/10 09:53:47;;;;;;;;;15.67;10.00;;;;;;;;5091212;27;45443;-80
2022/10/10 09:56:17;;;;;;;;;12.33;10.33;;;;;;;;5080913;27;45323;-79
2022/10/10 09:58:43;;;;;;;;;10.33;9.33;;;;;;;;5097216;27;45450;-80
2022/10/10 10:01:12;;;;;;;;;11.67;8.67;;;;;;;;5090640;27;46552;-80
2022/10/10 10:03:37;;;;;;;;;9.33;9.33;;;;;;;;5094687;27;45341;-79
2022/10/10 10:06:03;;;;;;;;;10.67;10.67;;;;;;;;5089328;27;45484;-81
2022/10/10 10:08:30;;;;;;;;;8.33;7.00;;;;;;;;5088364;27;45406;-79
2022/10/10 10:10:57;;;;;;;;;11.67;10.00;;;;;;;;5096780;27;46109;-79
2022/10/10 10:13:24;;;;;;;;;14.00;10.67;;;;;;;;5087738;27;45364;-81
2022/10/10 10:15:54;;;;;;;;;11.33;10.00;;;;;;;;5080058;27;45451;-79
2022/10/10 10:18:26;;;;;;;;;9.67;9.67;;;;;;;;5087172;27;45433;-80
2022/10/10 10:20:53;;;;;;;;;11.33;9.67;;;;;;;;5079549;27;45384;-77
2022/10/10 10:23:21;;;;;;;;;11.67;9.00;;;;;;;;5077935;27;45458;-78
2022/10/10 10:25:55;;;;;;;;;12.00;10.00;;;;;;;;5079636;27;45244;-79
2022/10/10 10:28:21;;;;;;;;;12.00;9.67;;;;;;;;5086765;27;45938;-80
2022/10/10 10:30:47;;;;;;;;;14.33;10.00;;;;;;;;5080905;27;45458;-80
2022/10/10 10:33:18;;;;;;;;;11.33;10.67;;;;;;;;5091159;27;45283;-78
2022/10/10 10:36:10;;;;;;;;;12.00;10.00;;;;;;;;5086505;27;45334;-78
2022/10/10 10:38:43;;;;;;;;;11.00;9.33;;;;;;;;5084861;27;45492;-80
2022/10/10 10:41:14;;;;;;;;;12.00;9.00;;;;;;;;5075950;27;46864;-79
2022/10/10 10:43:42;;;;;;;;;11.33;8.67;;;;;;;;5085782;27;45462;-81
2022/10/10 10:46:08;;;;;;;;;12.00;11.00;;;;;;;;5078200;27;45541;-81
2022/10/10 10:48:39;;;;;;;;;11.33;7.67;;;;;;;;5090315;27;45584;-80
2022/10/10 10:51:24;;;;;;;;;9.33;8.00;;;;;;;;5077986;27;47390;-78
2022/10/10 10:53:56;;;;;;;;;14.33;10.00;;;;;;;;5085103;27;44947;-79
2022/10/10 10:56:24;;;;;;;;;8.67;8.67;;;;;;;;5080964;27;45305;-80
2022/10/10 10:58:55;;;;;;;;;9.33;9.33;;;;;;;;5085016;27;45177;-80
2022/10/10 11:01:39;;;;;;;;;8.00;6.00;;;;;;;;5078859;27;45536;-79
2022/10/10 11:04:23;;;;;;;;;9.33;8.33;;;;;;;;5082447;27;45480;-80
2022/10/10 11:06:54;;;;;;;;;12.00;10.00;;;;;;;;5090815;27;45530;-80
2022/10/10 11:09:26;;;;;;;;;13.00;11.33;;;;;;;;5081841;27;45341;-81
2022/10/10 11:12:10;;;;;;;;;15.33;11.00;;;;;;;;5080275;27;46356;-81
2022/10/10 11:14:56;;;;;;;;;10.33;8.67;;;;;;;;5078525;27;45443;-79
2022/10/10 11:17:24;;;;;;;;;14.00;10.00;;;;;;;;5089115;27;45560;-80
2022/10/10 11:19:55;;;;;;;;;23.33;20.33;;;;;;;;5087391;27;45590;-80
2022/10/10 11:22:22;;;;;;;;;9.67;9.67;;;;;;;;5090511;27;45507;-80
2022/10/10 11:24:52;;;;;;;;;11.67;9.67;;;;;;;;5078347;27;45522;-80
2022/10/10 11:27:25;;;;;;;;;12.33;9.67;;;;;;;;5086444;27;45209;-81
2022/10/10 11:30:02;;;;;;;;;13.33;10.33;;;;;;;;5071989;28;45895;-81
2022/10/10 11:32:36;;;;;;;;;13.00;12.00;;;;;;;;5083344;27;45252;-80
2022/10/10 11:35:11;;;;;;;;;15.00;14.00;;;;;;;;5083997;27;45255;-81
2022/10/10 11:37:39;;;;;;;;;13.00;11.33;;;;;;;;5084451;27;45380;-81
2022/10/10 11:40:05;;;;;;;;;15.33;11.67;;;;;;;;5079535;27;45617;-81
2022/10/10 11:42:49;;;;;;;;;11.67;10.00;;;;;;;;5082369;27;46385;-82
2022/10/10 11:45:17;;;;;;;;;15.00;12.00;;;;;;;;5077091;27;45334;-82
2022/10/10 11:47:50;;;;;;;;;13.00;11.33;;;;;;;;5085786;27;45510;-82
2022/10/10 11:50:22;;;;;;;;;12.67;12.67;;;;;;;;5100704;27;45493;-82
2022/10/10 11:52:47;;;;;;;;;11.33;8.67;;;;;;;;5082461;27;46181;-81
2022/10/10 11:55:22;;;;;;;;;15.33;12.67;;;;;;;;5074827;27;45371;-81
2022/10/10 11:57:52;;;;;;;;;11.33;10.00;;;;;;;;5072250;27;45463;-82
2022/10/10 12:00:17;;;;;;;;;11.00;11.00;;;;;;;;5092746;27;45379;-83
2022/10/10 12:02:43;;;;;;;;;14.33;11.00;;;;;;;;5092452;27;46715;-80
2022/10/10 12:05:20;;;;;;;;;14.00;11.67;;;;;;;;5092398;27;45340;-80
2022/10/10 12:07:58;;;;;;;;;11.00;9.67;;;;;;;;5093173;27;45373;-81
2022/10/10 12:10:34;;;;;;;;;11.33;9.00;;;;;;;;5073305;27;46316;-81
2022/10/10 12:13:06;;;;;;;;;17.33;11.33;;;;;;;;5095274;27;46145;-81
2022/10/10 12:15:33;;;;;;;;;12.33;10.67;;;;;;;;5095098;27;45293;-80
2022/10/10 12:17:59;;;;;;;;;14.67;13.00;;;;;;;;5090455;27;45410;-80
2022/10/10 12:20:24;;;;;;;;;10.33;9.33;;;;;;;;5100156;27;45220;-80
2022/10/10 12:23:28;;;;;;;;;10.67;10.67;;;;;;;;5092309;27;46041;-79
2022/10/10 12:25:53;;;;;;;;;17.67;13.00;;;;;;;;5071999;27;45451;-78
2022/10/10 12:28:26;;;;;;;;;11.00;10.00;;;;;;;;5087493;27;45270;-78
2022/10/10 12:30:55;;;;;;;;;11.33;8.33;;;;;;;;5078530;27;46620;-78
2022/10/10 12:33:42;;;;;;;;;13.00;12.67;;;;;;;;5086808;27;45030;-78
2022/10/10 12:36:19;;;;;;;;;13.33;11.67;;;;;;;;5090956;27;45331;-77
2022/10/10 12:39:00;;;;;;;;;17.33;14.33;;;;;;;;5074990;27;45388;-79
2022/10/10 12:41:41;;;;;;;;;12.67;11.67;;;;;;;;5083244;27;45310;-80
2022/10/10 12:44:18;;;;;;;;;16.33;14.67;;;;;;;;5093106;27;45209;-81
2022/10/10 12:46:43;;;;;;;;;14.00;12.33;;;;;;;;5089468;27;45318;-81
2022/10/10 12:49:11;;;;;;;;;12.00;10.67;;;;;;;;5093149;27;45411;-81
2022/10/10 12:51:37;;;;;;;;;15.00;14.67;;;;;;;;5095465;27;45351;-81
2022/10/10 12:54:03;;;;;;;;;14.33;12.67;;;;;;;;5094071;27;46127;-80
2022/10/10 12:56:34;;;;;;;;;13.67;12.67;;;;;;;;5089041;27;45379;-82
2022/10/10 12:59:00;;;;;;;;;14.67;14.33;;;;;;;;5089010;27;45657;-81
2022/10/10 13:01:27;;;;;;;;;14.33;13.33;;;;;;;;5092623;27;45370;-81
2022/10/10 13:03:53;;;;;;;;;15.33;12.67;;;;;;;;5089175;27;45445;-83
2022/10/10 13:06:19;;;;;;;;;14.00;12.33;;;;;;;;5072166;27;45482;-83
2022/10/10 13:08:44;;;;;;;;;16.33;11.67;;;;;;;;5072203;27;45426;-82
2022/10/10 13:11:11;;;;;;;;;16.00;12.00;;;;;;;;5092606;27;45719;-81
2022/10/10 13:13:37;;;;;;;;;13.67;12.33;;;;;;;;5092396;27;46153;-81
2022/10/10 13:16:07;;;;;;;;;14.00;14.00;;;;;;;;5089324;27;45300;-82
2022/10/10 13:18:37;;;;;;;;;16.00;13.33;;;;;;;;5085026;27;45359;-81
2022/10/10 13:21:04;;;;;;;;;14.33;11.67;;;;;;;;5082824;27;45449;-80
2022/10/10 13:23:29;;;;;;;;;14.33;12.00;;;;;;;;5080692;27;45494;-78
2022/10/10 13:25:55;;;;;;;;;13.00;13.00;;;;;;;;5067237;27;45387;-76
2022/10/10 13:28:20;;;;;;;;;15.33;10.67;;;;;;;;5085010;27;45518;-80
2022/10/10 13:30:46;;;;;;;;;14.67;10.67;;;;;;;;5097594;27;45343;-80
2022/10/10 13:33:17;;;;;;;;;19.67;19.00;;;;;;;;5094222;27;45586;-79
2022/10/10 13:35:43;;;;;;;;;13.67;12.00;;;;;;;;5086324;27;45424;-80
2022/10/10 13:38:10;;;;;;;;;13.00;12.67;;;;;;;;5079860;27;45284;-80
2022/10/10 13:40:35;;;;;;;;;11.00;10.33;;;;;;;;5086927;27;45503;-80
2022/10/10 13:43:01;;;;;;;;;13.33;11.67;;;;;;;;5086578;27;45346;-80
2022/10/10 13:45:43;;;;;;;;;10.33;10.33;;;;;;;;5082420;27;45269;-80
2022/10/10 13:48:10;;;;;;;;;12.00;10.00;;;;;;;;5087670;27;45320;-79
2022/10/10 13:50:41;;;;;;;;;11.67;11.33;;;;;;;;5082880;27;45476;-80
2022/10/10 13:53:23;;;;;;;;;12.67;11.67;;;;;;;;5091601;27;45610;-79
2022/10/10 13:55:48;;;;;;;;;13.67;13.33;;;;;;;;5081336;27;45328;-80
2022/10/10 13:58:14;;;;;;;;;13.67;13.00;;;;;;;;5069600;28;45577;-80
2022/10/10 14:00:40;;;;;;;;;15.67;10.67;;;;;;;;5090936;27;45746;-79
2022/10/10 14:03:15;;;;;;;;;14.33;12.67;;;;;;;;5090091;27;46345;-79
2022/10/10 14:05:42;;;;;;;;;13.67;13.33;;;;;;;;5095228;27;45254;-78
2022/10/10 14:08:14;;;;;;;;;13.33;13.00;;;;;;;;5093926;27;45297;-79
2022/10/10 14:10:39;;;;;;;;;11.67;8.67;;;;;;;;5090294;27;45256;-79
2022/10/10 14:13:05;;;;;;;;;14.33;11.00;;;;;;;;5069034;27;47424;-79
2022/10/10 14:15:42;;;;;;;;;14.00;12.00;;;;;;;;5099678;27;45471;-79
2022/10/10 14:18:20;;;;;;;;;12.67;11.00;;;;;;;;5085531;27;45532;-79
2022/10/10 14:20:46;;;;;;;;;12.33;9.00;;;;;;;;5080361;27;45569;-81
2022/10/10 14:23:11;;;;;;;;;12.67;10.33;;;;;;;;5090536;27;46090;-80